createdAt,value
2023-04-02T00:02:32.085Z,9.23
2023-04-02T00:07:34.509Z,9.20
2023-04-02T00:12:37.175Z,9.24
2023-04-02T00:17:39.473Z,8.45
2023-04-02T00:22:45.284Z,8.04
2023-04-02T00:27:48.020Z,7.83
2023-04-02T00:32:51.891Z,7.94
2023-04-02T00:37:55.069Z,7.98
2023-04-02T00:43:00.280Z,8.03
2023-04-02T00:48:21.407Z,8.08
2023-04-02T00:53:30.705Z,8.19
2023-04-02T00:58:36.942Z,8.21
2023-04-02T01:03:39.349Z,8.31
2023-04-02T01:08:44.570Z,8.40
2023-04-02T01:13:54.656Z,8.50
2023-04-02T01:19:06.421Z,8.64
2023-04-02T01:24:12.584Z,8.68
2023-04-02T01:29:20.717Z,8.78
2023-04-02T01:34:26.654Z,8.89
2023-04-02T01:39:48.055Z,9.02
2023-04-02T01:44:54.783Z,9.05
2023-04-02T01:50:25.687Z,8.91
2023-04-02T01:55:34.800Z,8.87
2023-04-02T02:00:43.832Z,8.80
2023-04-02T02:05:46.918Z,8.74
2023-04-02T02:10:51.135Z,8.77
2023-04-02T02:15:58.308Z,8.83
2023-04-02T02:21:05.607Z,8.80
2023-04-02T02:26:08.407Z,8.68
2023-04-02T02:31:22.920Z,8.70
2023-04-02T02:36:57.007Z,8.67
2023-04-02T02:42:22.123Z,8.74
2023-04-02T02:47:31.143Z,8.75
2023-04-02T02:52:38.772Z,8.74
2023-04-02T02:57:54.316Z,8.75
2023-04-02T03:02:59.046Z,8.67
2023-04-02T03:08:10.008Z,8.72
2023-04-02T03:13:15.397Z,8.75
2023-04-02T03:18:33.341Z,8.86
2023-04-02T03:23:49.345Z,8.87
2023-04-02T03:29:03.338Z,9.13
2023-04-02T03:34:33.794Z,9.15
2023-04-02T03:39:45.867Z,9.27
2023-04-02T03:45:10.715Z,9.24
2023-04-02T03:50:21.848Z,9.30
2023-04-02T03:55:32.872Z,9.36
2023-04-02T04:00:44.953Z,9.49
2023-04-02T04:06:00.923Z,9.57
2023-04-02T04:11:10.604Z,9.57
2023-04-02T04:16:19.448Z,9.75
2023-04-02T04:21:37.778Z,9.82
2023-04-02T04:27:11.867Z,9.92
2023-04-02T04:32:32.610Z,10.00
2023-04-02T04:37:43.826Z,10.12
2023-04-02T04:42:53.277Z,10.26
2023-04-02T04:48:01.792Z,10.41
2023-04-02T04:53:08.232Z,10.58
2023-04-02T04:58:25.565Z,10.66
2023-04-02T05:03:38.225Z,10.86
2023-04-02T05:08:47.853Z,11.05
2023-04-02T05:13:58.113Z,11.04
2023-04-02T05:19:10.593Z,11.36
2023-04-02T05:24:28.372Z,11.47
2023-04-02T05:29:37.749Z,11.53
2023-04-02T05:34:45.826Z,11.65
2023-04-02T05:39:55.925Z,11.71
2023-04-02T05:45:05.466Z,11.78
2023-04-02T05:50:07.881Z,11.80
2023-04-02T05:55:43.944Z,12.03
2023-04-02T06:01:00.111Z,12.25
2023-04-02T06:06:14.701Z,12.35
2023-04-02T06:11:24.133Z,12.50
2023-04-02T06:16:31.083Z,12.63
2023-04-02T06:21:33.487Z,12.64
2023-04-02T06:26:48.202Z,12.85
2023-04-02T06:31:56.794Z,13.16
2023-04-02T06:37:38.088Z,13.54
2023-04-02T06:43:09.249Z,13.54
2023-04-02T06:48:32.563Z,13.67
2023-04-02T06:53:40.297Z,13.83
2023-04-02T06:58:47.208Z,14.35
2023-04-02T07:03:50.625Z,14.74
2023-04-02T07:09:05.207Z,15.10
2023-04-02T07:14:12.376Z,15.30
2023-04-02T07:19:23.212Z,15.57
2023-04-02T07:24:30.207Z,15.82
2023-04-02T07:29:32.511Z,16.11
2023-04-02T07:34:34.818Z,16.51
2023-04-02T07:39:40.173Z,16.55
2023-04-02T07:44:43.089Z,16.76
2023-04-02T07:49:45.542Z,16.82
2023-04-02T07:54:48.062Z,17.11
2023-04-02T07:59:51.087Z,17.44
2023-04-02T08:04:53.482Z,16.94
2023-04-02T08:09:55.818Z,17.39
2023-04-02T08:14:58.267Z,17.75
2023-04-02T08:20:04.727Z,18.63
2023-04-02T08:25:07.451Z,18.99
2023-04-02T08:30:12.902Z,18.87
2023-04-02T08:35:17.301Z,18.80
2023-04-02T08:40:41.942Z,18.76
2023-04-02T08:46:35.733Z,19.02
2023-04-02T08:51:38.552Z,19.20
2023-04-02T08:56:47.502Z,19.31
2023-04-02T09:02:00.552Z,19.08
2023-04-02T09:07:04.633Z,19.56
2023-04-02T09:12:16.617Z,20.36
2023-04-02T09:17:28.185Z,21.35
2023-04-02T09:22:33.188Z,21.90
2023-04-02T09:27:36.953Z,21.83
2023-04-02T09:32:51.453Z,21.46
2023-04-02T09:38:33.259Z,21.33
2023-04-02T09:43:40.121Z,20.76
2023-04-02T09:48:53.453Z,21.17
2023-04-02T09:54:04.573Z,20.99
2023-04-02T09:59:16.926Z,21.15
2023-04-02T10:04:47.323Z,21.24
2023-04-02T10:09:58.906Z,21.23
2023-04-02T10:15:03.590Z,21.33
2023-04-02T10:20:17.948Z,21.71
2023-04-02T10:25:24.922Z,21.65
2023-04-02T10:30:35.999Z,21.32
2023-04-02T10:36:05.127Z,21.87
2023-04-02T10:41:21.479Z,21.79
2023-04-02T10:46:53.051Z,21.52
2023-04-02T10:51:55.399Z,21.33
2023-04-02T10:57:06.993Z,21.38
2023-04-02T11:02:36.721Z,21.27
2023-04-02T11:07:52.613Z,20.92
2023-04-02T11:13:23.103Z,20.83
2023-04-02T11:18:36.083Z,20.61
2023-04-02T11:24:01.786Z,20.58
2023-04-02T11:29:15.949Z,20.05
2023-04-02T11:35:03.050Z,19.76
2023-04-02T11:40:16.734Z,19.48
2023-04-02T11:45:25.246Z,19.37
2023-04-02T11:50:42.162Z,19.08
2023-04-02T11:55:44.499Z,18.80
2023-04-02T12:01:05.782Z,18.71
2023-04-02T12:06:29.467Z,18.58
2023-04-02T12:11:40.663Z,18.46
2023-04-02T12:16:43.082Z,18.32
2023-04-02T12:21:48.898Z,18.14
2023-04-02T12:27:16.578Z,17.95
2023-04-02T12:32:30.012Z,18.00
2023-04-02T12:37:32.869Z,17.76
2023-04-02T12:42:37.329Z,17.66
2023-04-02T12:47:45.432Z,17.50
2023-04-02T12:52:53.540Z,17.24
2023-04-02T12:57:57.670Z,17.24
2023-04-02T13:02:59.920Z,17.36
2023-04-02T13:08:03.675Z,17.06
2023-04-02T13:13:06.912Z,17.10
2023-04-02T13:18:20.737Z,17.01
2023-04-02T13:23:31.975Z,16.96
2023-04-02T13:28:34.352Z,16.77
2023-04-02T13:33:37.350Z,16.70
2023-04-02T13:38:39.727Z,16.53
2023-04-02T13:43:42.113Z,16.57
2023-04-02T13:48:44.470Z,16.46
2023-04-02T13:53:54.380Z,16.24
2023-04-02T13:58:56.785Z,16.27
2023-04-02T14:03:59.448Z,16.16
2023-04-02T14:09:14.286Z,16.05
2023-04-02T14:15:03.631Z,15.94
2023-04-02T14:20:28.869Z,15.87
2023-04-02T14:25:40.285Z,15.76
2023-04-02T14:31:07.850Z,15.61
2023-04-02T14:36:18.783Z,15.48
2023-04-02T14:42:02.255Z,15.44
2023-04-02T14:47:26.191Z,15.32
2023-04-02T14:52:33.904Z,15.14
2023-04-02T14:57:45.034Z,14.98
2023-04-02T15:03:06.503Z,14.95
2023-04-02T15:08:21.118Z,14.82
2023-04-02T15:13:31.301Z,14.66
2023-04-02T15:18:33.726Z,14.55
2023-04-02T15:23:51.299Z,14.51
2023-04-02T15:29:07.570Z,14.30
2023-04-02T15:34:58.172Z,14.20
2023-04-02T15:40:25.653Z,14.05
2023-04-02T15:45:59.009Z,13.92
2023-04-02T15:51:13.651Z,13.79
2023-04-02T15:56:39.063Z,13.73
2023-04-02T16:01:53.660Z,13.59
2023-04-02T16:07:28.209Z,13.52
2023-04-02T16:12:33.695Z,13.41
2023-04-02T16:17:48.888Z,13.37
2023-04-02T16:23:01.173Z,13.32
2023-04-02T16:28:12.887Z,13.26
2023-04-02T16:33:20.119Z,13.09
2023-04-02T16:38:46.635Z,13.06
2023-04-02T16:44:07.910Z,12.91
2023-04-02T16:49:48.652Z,12.85
2023-04-02T16:55:12.833Z,12.84
2023-04-02T17:00:56.498Z,12.73
2023-04-02T17:06:07.184Z,12.65
2023-04-02T17:11:21.693Z,12.51
2023-04-02T17:16:42.100Z,12.43
2023-04-02T17:21:48.963Z,12.34
2023-04-02T17:26:55.306Z,12.28
2023-04-02T17:32:01.739Z,12.18
2023-04-02T17:37:43.036Z,12.06
2023-04-02T17:42:57.214Z,11.93
2023-04-02T17:48:13.052Z,11.91
2023-04-02T17:53:22.010Z,11.87
2023-04-02T17:58:24.292Z,11.78
2023-04-02T18:03:50.827Z,11.79
2023-04-02T18:09:29.346Z,11.77
2023-04-02T18:15:16.160Z,11.72
2023-04-02T18:20:21.339Z,11.66
2023-04-02T18:25:29.640Z,11.61
2023-04-02T18:30:56.176Z,11.69
2023-04-02T18:36:19.856Z,11.58
2023-04-02T18:41:22.112Z,11.48
2023-04-02T18:46:50.716Z,11.37
2023-04-02T18:51:59.204Z,11.24
2023-04-02T18:57:10.430Z,11.16
2023-04-02T19:02:41.846Z,11.08
2023-04-02T19:07:47.286Z,11.00
2023-04-02T19:12:49.532Z,10.94
2023-04-02T19:18:30.706Z,10.97
2023-04-02T19:24:01.131Z,10.92
2023-04-02T19:29:06.450Z,10.79
2023-04-02T19:34:24.913Z,10.80
2023-04-02T19:39:39.851Z,10.83
2023-04-02T19:44:47.419Z,10.78
2023-04-02T19:49:49.956Z,10.72
2023-04-02T19:54:52.588Z,10.80
2023-04-02T19:59:54.930Z,10.83
2023-04-02T20:04:57.431Z,10.83
2023-04-02T20:09:59.681Z,10.83
2023-04-02T20:15:02.110Z,10.86
2023-04-02T20:20:06.840Z,10.90
2023-04-02T20:25:09.342Z,10.85
2023-04-02T20:30:12.156Z,10.72
2023-04-02T20:35:14.548Z,10.65
2023-04-02T20:40:16.947Z,10.50
2023-04-02T20:45:19.533Z,10.45
2023-04-02T20:50:22.073Z,10.27
2023-04-02T20:55:24.377Z,10.22
2023-04-02T21:00:26.694Z,10.13
2023-04-02T21:05:29.092Z,9.88
2023-04-02T21:10:31.366Z,9.82
2023-04-02T21:15:34.178Z,9.69
2023-04-02T21:20:36.724Z,9.68
2023-04-02T21:25:39.025Z,9.50
2023-04-02T21:30:41.534Z,9.43
2023-04-02T21:35:43.964Z,9.40
2023-04-02T21:40:46.232Z,9.27
2023-04-02T21:45:48.509Z,9.13
2023-04-02T21:50:50.812Z,9.15
2023-04-02T21:56:01.487Z,9.11
2023-04-02T22:01:07.135Z,8.96
2023-04-02T22:06:14.230Z,8.94
2023-04-02T22:11:19.414Z,8.91
2023-04-02T22:16:24.759Z,8.85
2023-04-02T22:21:27.766Z,8.69
2023-04-02T22:26:31.477Z,8.66
2023-04-02T22:31:35.364Z,8.57
2023-04-02T22:36:37.912Z,8.60
2023-04-02T22:41:40.268Z,8.57
2023-04-02T22:46:42.625Z,8.56
2023-04-02T22:51:45.676Z,8.62
2023-04-02T22:56:48.098Z,8.53
2023-04-02T23:01:50.611Z,8.51
2023-04-02T23:06:53.253Z,8.45
2023-04-02T23:11:55.865Z,8.37
2023-04-02T23:16:58.152Z,8.33
2023-04-02T23:22:00.502Z,8.32
2023-04-02T23:27:03.305Z,8.34
2023-04-02T23:32:06.129Z,8.32
2023-04-02T23:37:08.868Z,8.42
2023-04-02T23:42:12.128Z,8.38
2023-04-02T23:47:14.460Z,8.33
2023-04-02T23:52:16.768Z,8.41
2023-04-02T23:57:19.541Z,8.46
